createdAt,value
2023-01-26T05:15:18.573Z,-0.72
2023-01-26T05:16:18.585Z,-0.75
2023-01-26T05:17:18.540Z,-0.77
2023-01-26T05:18:18.513Z,-0.75
2023-01-26T05:19:18.520Z,-0.73
2023-01-26T05:20:18.526Z,-0.75
2023-01-26T05:21:18.513Z,-0.72
2023-01-26T05:22:18.463Z,-0.70
2023-01-26T05:23:18.480Z,-0.68
2023-01-26T05:24:18.473Z,-0.68
2023-01-26T05:25:18.434Z,-0.65
2023-01-26T05:26:18.422Z,-0.66
2023-01-26T05:27:18.407Z,-0.66
2023-01-26T05:28:18.391Z,-0.66
2023-01-26T05:29:18.381Z,-0.68
2023-01-26T05:30:18.437Z,-0.68
2023-01-26T05:31:18.423Z,-0.66
2023-01-26T05:32:18.341Z,-0.63
2023-01-26T05:33:18.341Z,-0.63
2023-01-26T05:34:18.311Z,-0.66
2023-01-26T05:35:18.310Z,-0.68
2023-01-26T05:36:18.299Z,-0.68
2023-01-26T05:37:18.280Z,-0.66
2023-01-26T05:38:18.275Z,-0.65
2023-01-26T05:39:18.290Z,-0.63
2023-01-26T05:40:18.257Z,-0.60
2023-01-26T05:41:18.249Z,-0.59
2023-01-26T05:42:18.207Z,-0.59
2023-01-26T05:43:18.217Z,-0.59
2023-01-26T05:44:18.192Z,-0.59
2023-01-26T05:45:18.177Z,-0.60
2023-01-26T05:46:18.174Z,-0.55
2023-01-26T05:47:18.175Z,-0.54
2023-01-26T05:48:18.136Z,-0.54
2023-01-26T05:49:18.131Z,-0.52
2023-01-26T05:50:18.116Z,-0.54
2023-01-26T05:51:18.116Z,-0.55
2023-01-26T05:52:18.084Z,-0.59
2023-01-26T05:53:18.095Z,-0.57
2023-01-26T05:54:18.056Z,-0.59
2023-01-26T05:55:18.058Z,-0.55
2023-01-26T05:56:18.073Z,-0.54
2023-01-26T05:57:18.124Z,-0.51
2023-01-26T05:58:18.027Z,-0.54
2023-01-26T05:59:18.005Z,-0.59
2023-01-26T06:00:18.004Z,-0.59
2023-01-26T06:01:18.004Z,-0.59
2023-01-26T06:02:17.985Z,-0.60
2023-01-26T06:03:17.962Z,-0.59
2023-01-26T06:04:17.987Z,-0.55
2023-01-26T06:05:17.922Z,-0.52
2023-01-26T06:06:17.914Z,-0.51
2023-01-26T06:07:17.892Z,-0.51
2023-01-26T06:08:17.873Z,-0.52
2023-01-26T06:09:17.881Z,-0.48
2023-01-26T06:10:17.860Z,-0.48
2023-01-26T06:11:17.852Z,-0.47
2023-01-26T06:12:17.828Z,-0.45
2023-01-26T06:13:17.818Z,-0.47
2023-01-26T06:14:17.806Z,-0.51
2023-01-26T06:15:17.811Z,-0.50
2023-01-26T06:16:17.814Z,-0.51
2023-01-26T06:17:17.804Z,-0.54
2023-01-26T06:18:17.753Z,-0.52
2023-01-26T06:19:17.756Z,-0.52
2023-01-26T06:20:17.737Z,-0.48
2023-01-26T06:21:17.735Z,-0.52
2023-01-26T06:22:17.708Z,-0.52
2023-01-26T06:23:17.704Z,-0.52
2023-01-26T06:24:17.732Z,-0.50
2023-01-26T06:25:17.685Z,-0.50
2023-01-26T06:26:17.669Z,-0.47
2023-01-26T06:27:17.765Z,-0.47
2023-01-26T06:28:17.626Z,-0.45
2023-01-26T06:29:17.624Z,-0.47
2023-01-26T06:30:17.598Z,-0.50
2023-01-26T06:31:17.730Z,-0.47
2023-01-26T06:32:17.587Z,0.05
2023-01-26T06:33:17.595Z,0.23
2023-01-26T06:34:17.582Z,0.64
2023-01-26T06:35:17.563Z,0.52
2023-01-26T06:36:17.549Z,0.45
2023-01-26T06:37:17.535Z,0.58
2023-01-26T06:38:17.507Z,0.85
2023-01-26T06:39:17.484Z,0.71
2023-01-26T06:40:17.465Z,0.64
2023-01-26T06:41:17.463Z,0.75
2023-01-26T06:42:17.459Z,0.83
2023-01-26T06:43:17.440Z,0.89
2023-01-26T06:44:17.423Z,0.65
2023-01-26T06:45:17.413Z,0.38
2023-01-26T06:46:17.453Z,0.21
2023-01-26T06:47:17.392Z,0.12
2023-01-26T06:48:17.375Z,0.07
2023-01-26T06:49:17.360Z,0.02
2023-01-26T06:50:17.356Z,0.38
2023-01-26T06:51:17.346Z,0.51
2023-01-26T06:52:17.341Z,0.45
2023-01-26T06:53:17.321Z,0.27
2023-01-26T06:54:17.290Z,0.13
2023-01-26T06:55:17.290Z,-0.01
2023-01-26T06:56:17.264Z,-0.09
2023-01-26T06:57:17.276Z,-0.13
2023-01-26T06:58:17.242Z,-0.13
2023-01-26T06:59:17.239Z,-0.16
2023-01-26T07:00:17.243Z,0.24
2023-01-26T07:01:17.244Z,0.48
2023-01-26T07:02:17.233Z,0.78
2023-01-26T07:03:17.183Z,0.70
2023-01-26T07:04:17.184Z,0.61
2023-01-26T07:05:17.158Z,0.57
2023-01-26T07:06:17.146Z,0.27
2023-01-26T07:07:17.146Z,0.05
2023-01-26T07:08:17.117Z,-0.11
2023-01-26T07:09:17.096Z,-0.16
2023-01-26T07:10:17.106Z,-0.18
2023-01-26T07:11:17.099Z,-0.18
2023-01-26T07:12:17.101Z,-0.15
2023-01-26T07:13:17.051Z,-0.16
2023-01-26T07:14:17.037Z,-0.16
2023-01-26T07:15:17.017Z,-0.15
2023-01-26T07:16:17.043Z,-0.16
2023-01-26T07:17:17.005Z,-0.19
2023-01-26T07:18:16.991Z,-0.18
2023-01-26T07:19:16.985Z,-0.15
2023-01-26T07:20:16.954Z,-0.18
2023-01-26T07:21:16.945Z,-0.19
2023-01-26T07:22:16.944Z,-0.18
2023-01-26T07:23:16.922Z,-0.18
2023-01-26T07:24:16.925Z,-0.16
2023-01-26T07:25:16.893Z,-0.19
2023-01-26T07:26:16.882Z,-0.19
2023-01-26T07:27:16.884Z,-0.23
2023-01-26T07:28:16.862Z,-0.23
2023-01-26T07:29:16.858Z,-0.27
2023-01-26T07:30:16.855Z,-0.26
2023-01-26T07:31:16.896Z,-0.26
2023-01-26T07:32:16.820Z,-0.27
2023-01-26T07:33:16.788Z,-0.26
2023-01-26T07:34:16.784Z,-0.26
2023-01-26T07:35:16.779Z,-0.22
2023-01-26T07:36:16.749Z,-0.18
2023-01-26T07:37:16.758Z,-0.23
2023-01-26T07:38:16.738Z,-0.26
2023-01-26T07:39:16.719Z,-0.26
2023-01-26T07:40:16.708Z,-0.26
2023-01-26T07:41:16.711Z,-0.27
2023-01-26T07:42:16.749Z,-0.29
2023-01-26T07:43:16.671Z,-0.29
2023-01-26T07:44:16.724Z,-0.26
2023-01-26T07:45:16.651Z,-0.27
2023-01-26T07:46:16.668Z,-0.26
2023-01-26T07:47:16.631Z,-0.24
2023-01-26T07:48:16.614Z,-0.26
2023-01-26T07:49:16.607Z,-0.24
2023-01-26T07:50:16.595Z,-0.23
2023-01-26T07:51:16.566Z,-0.24
2023-01-26T07:52:16.557Z,-0.26
2023-01-26T07:53:16.537Z,-0.26
2023-01-26T07:54:16.528Z,-0.22
2023-01-26T07:55:16.504Z,-0.22
2023-01-26T07:56:16.528Z,-0.19
2023-01-26T07:57:16.502Z,-0.16
2023-01-26T07:58:16.485Z,-0.12
2023-01-26T07:59:16.459Z,-0.12
2023-01-26T08:00:16.456Z,-0.12
2023-01-26T08:01:16.473Z,-0.09
2023-01-26T08:02:16.434Z,-0.06
2023-01-26T08:03:16.431Z,-0.06
2023-01-26T08:04:16.404Z,-0.08
2023-01-26T08:05:16.394Z,-0.11
2023-01-26T08:06:16.372Z,-0.12
2023-01-26T08:07:16.394Z,-0.12
2023-01-26T08:08:16.343Z,-0.12
2023-01-26T08:09:16.321Z,-0.08
2023-01-26T08:10:16.323Z,-0.09
2023-01-26T08:11:16.305Z,-0.11
2023-01-26T08:12:16.294Z,-0.11
2023-01-26T08:13:23.541Z,-0.08
2023-01-26T08:14:17.292Z,-0.09
2023-01-26T08:15:16.250Z,-0.08
2023-01-26T08:16:16.295Z,-0.06
2023-01-26T08:17:16.254Z,-0.05
2023-01-26T08:18:16.238Z,-0.08
2023-01-26T08:19:16.211Z,-0.05
2023-01-26T08:20:16.191Z,-0.05
2023-01-26T08:21:16.182Z,-0.01
2023-01-26T08:22:16.168Z,0.00
2023-01-26T08:23:16.168Z,0.03
2023-01-26T08:24:16.187Z,0.06
2023-01-26T08:25:16.129Z,0.03
2023-01-26T08:26:16.159Z,0.02
2023-01-26T08:27:16.110Z,0.03
2023-01-26T08:28:16.098Z,0.07
2023-01-26T08:29:16.081Z,0.09
2023-01-26T08:30:16.087Z,0.07
2023-01-26T08:31:16.145Z,0.07
2023-01-26T08:32:16.051Z,0.05
2023-01-26T08:33:16.034Z,0.06
2023-01-26T08:34:16.016Z,0.00
2023-01-26T08:35:15.998Z,-0.04
2023-01-26T08:36:15.997Z,-0.05
2023-01-26T08:37:15.975Z,-0.06
2023-01-26T08:38:15.983Z,-0.04
2023-01-26T08:39:15.960Z,-0.01
2023-01-26T08:40:15.934Z,0.02
2023-01-26T08:41:15.952Z,0.03
2023-01-26T08:42:15.916Z,0.05
2023-01-26T08:43:15.915Z,0.05
2023-01-26T08:44:15.887Z,0.06
2023-01-26T08:45:15.891Z,0.09
2023-01-26T08:46:15.980Z,0.10
2023-01-26T08:47:15.893Z,0.13
2023-01-26T08:48:15.851Z,0.13
2023-01-26T08:49:15.822Z,0.12
2023-01-26T08:50:15.804Z,0.16
2023-01-26T08:51:15.802Z,0.18
2023-01-26T08:52:15.793Z,0.18
2023-01-26T08:53:15.777Z,0.23
2023-01-26T08:54:15.751Z,0.25
2023-01-26T08:55:15.750Z,0.24
2023-01-26T08:56:15.729Z,0.27
2023-01-26T08:57:15.721Z,0.28
2023-01-26T08:58:15.721Z,0.28
2023-01-26T08:59:15.700Z,0.31
2023-01-26T09:00:15.681Z,0.33
2023-01-26T09:01:15.722Z,0.31
2023-01-26T09:02:15.691Z,0.28
2023-01-26T09:03:15.706Z,0.31
2023-01-26T09:04:15.629Z,0.33
2023-01-26T09:05:15.617Z,0.28
2023-01-26T09:06:15.598Z,0.25
2023-01-26T09:07:15.607Z,0.27
2023-01-26T09:08:15.579Z,0.27
2023-01-26T09:09:15.604Z,0.27
2023-01-26T09:10:15.547Z,0.25
2023-01-26T09:11:15.538Z,0.24
2023-01-26T09:12:15.528Z,0.24
2023-01-26T09:13:15.527Z,0.27
2023-01-26T09:14:15.495Z,0.27
2023-01-26T09:15:15.501Z,0.30
2023-01-26T09:16:15.524Z,0.28
2023-01-26T09:17:15.475Z,0.30
2023-01-26T09:18:15.457Z,0.33
2023-01-26T09:19:15.447Z,0.38
2023-01-26T09:20:15.436Z,0.41
2023-01-26T09:21:15.415Z,0.41
2023-01-26T09:22:15.396Z,0.39
2023-01-26T09:23:15.404Z,0.38
2023-01-26T09:24:15.400Z,0.38
2023-01-26T09:25:15.374Z,0.39
2023-01-26T09:26:15.350Z,0.39
2023-01-26T09:27:15.343Z,0.41
2023-01-26T09:28:15.342Z,0.41
2023-01-26T09:29:15.312Z,0.39
2023-01-26T09:30:15.385Z,0.39
2023-01-26T09:31:15.398Z,0.43
2023-01-26T09:32:15.274Z,0.57
2023-01-26T09:33:15.262Z,0.61
2023-01-26T09:34:15.263Z,0.67
2023-01-26T09:35:15.622Z,0.68
2023-01-26T09:36:15.211Z,0.70
2023-01-26T09:37:15.218Z,0.65
2023-01-26T09:38:15.198Z,0.61
2023-01-26T09:39:15.190Z,0.60
2023-01-26T09:40:15.167Z,0.62
2023-01-26T09:41:15.160Z,0.62
2023-01-26T09:42:15.261Z,0.64
2023-01-26T09:43:15.139Z,0.65
2023-01-26T09:44:15.120Z,0.62
2023-01-26T09:45:15.119Z,0.61
2023-01-26T09:46:15.122Z,0.60
2023-01-26T09:47:15.078Z,0.58
2023-01-26T09:48:15.069Z,0.58
2023-01-26T09:49:15.070Z,0.57
2023-01-26T09:50:15.129Z,0.58
2023-01-26T09:51:15.054Z,0.57
2023-01-26T09:52:15.008Z,0.57
2023-01-26T09:53:15.014Z,0.57
2023-01-26T09:54:15.015Z,0.58
2023-01-26T09:55:15.958Z,0.61
2023-01-26T09:56:14.971Z,0.61
2023-01-26T09:57:14.964Z,0.64
2023-01-26T09:58:14.936Z,0.64
2023-01-26T09:59:14.974Z,0.67
2023-01-26T10:00:14.918Z,0.64
2023-01-26T10:01:14.923Z,0.62
2023-01-26T10:02:14.895Z,0.62
2023-01-26T10:03:14.877Z,0.64
2023-01-26T10:04:14.888Z,0.64
2023-01-26T10:05:14.844Z,0.65
2023-01-26T10:06:14.837Z,0.64
2023-01-26T10:07:14.834Z,0.65
2023-01-26T10:08:14.807Z,0.67
2023-01-26T10:09:14.813Z,0.68
2023-01-26T10:10:14.783Z,0.65
2023-01-26T10:11:14.806Z,0.64
2023-01-26T10:12:14.763Z,0.65
2023-01-26T10:13:14.750Z,0.68
2023-01-26T10:14:14.738Z,0.70
2023-01-26T10:15:14.946Z,0.70
2023-01-26T10:16:14.817Z,0.70
2023-01-26T10:17:14.702Z,0.71
2023-01-26T10:18:14.683Z,0.70
2023-01-26T10:19:14.689Z,0.72
2023-01-26T10:20:14.673Z,0.76
2023-01-26T10:21:14.640Z,0.80
2023-01-26T10:22:14.625Z,0.79
2023-01-26T10:23:14.627Z,0.80
2023-01-26T10:24:14.625Z,0.83
2023-01-26T10:25:14.587Z,0.80
2023-01-26T10:26:14.570Z,0.82
2023-01-26T10:27:14.568Z,0.83
2023-01-26T10:28:14.571Z,0.83
2023-01-26T10:29:14.584Z,0.83
2023-01-26T10:30:14.518Z,0.86
2023-01-26T10:31:14.612Z,0.86
2023-01-26T10:32:14.499Z,0.85
2023-01-26T10:33:16.427Z,0.83
2023-01-26T10:34:14.489Z,0.82
2023-01-26T10:35:14.457Z,0.79
2023-01-26T10:36:14.440Z,0.78
2023-01-26T10:37:14.428Z,0.78
2023-01-26T10:38:14.421Z,0.82
2023-01-26T10:39:15.579Z,0.85
2023-01-26T10:40:14.386Z,0.85
2023-01-26T10:41:14.376Z,0.86
2023-01-26T10:42:14.366Z,0.89
2023-01-26T10:43:14.365Z,0.89
2023-01-26T10:44:14.350Z,0.88
2023-01-26T10:45:14.792Z,0.86
2023-01-26T10:46:14.348Z,0.88
2023-01-26T10:47:14.313Z,0.89
2023-01-26T10:48:14.335Z,0.88
2023-01-26T10:49:14.560Z,0.86
2023-01-26T10:50:14.279Z,0.92
2023-01-26T10:51:14.255Z,0.92
2023-01-26T10:52:14.267Z,0.96
2023-01-26T10:53:14.240Z,0.94
2023-01-26T10:54:14.249Z,0.97
2023-01-26T10:55:14.453Z,0.97
2023-01-26T10:56:14.268Z,0.97
2023-01-26T10:57:14.184Z,0.96
2023-01-26T10:58:14.175Z,0.96
2023-01-26T10:59:14.172Z,0.96
2023-01-26T11:00:14.155Z,0.94
2023-01-26T11:01:14.169Z,0.94
2023-01-26T11:02:14.129Z,0.90
2023-01-26T11:03:14.184Z,0.90
2023-01-26T11:04:14.080Z,0.92
2023-01-26T11:05:14.513Z,0.94
2023-01-26T11:06:14.072Z,0.96
2023-01-26T11:07:14.087Z,0.96
2023-01-26T11:08:14.030Z,0.97
2023-01-26T11:09:14.040Z,1.01
2023-01-26T11:10:14.025Z,1.03
2023-01-26T11:11:13.997Z,1.03
2023-01-26T11:12:13.979Z,1.04
2023-01-26T11:13:13.975Z,1.04
2023-01-26T11:14:13.955Z,1.04
2023-01-26T11:15:13.979Z,1.00
2023-01-26T11:16:14.047Z,1.00
2023-01-26T11:17:13.923Z,1.00
2023-01-26T11:18:13.913Z,0.98
2023-01-26T11:19:13.896Z,0.97
2023-01-26T11:20:13.898Z,1.00
2023-01-26T11:21:13.868Z,0.98
2023-01-26T11:22:13.853Z,0.98
2023-01-26T11:23:13.836Z,0.98
2023-01-26T11:24:13.856Z,0.98
2023-01-26T11:25:14.054Z,1.00
2023-01-26T11:26:13.797Z,0.92
2023-01-26T11:27:13.785Z,0.94
2023-01-26T11:28:13.776Z,0.97
2023-01-26T11:29:13.771Z,0.96
2023-01-26T11:30:13.768Z,0.94
2023-01-26T11:31:13.940Z,0.94
2023-01-26T11:32:13.728Z,0.92
2023-01-26T11:33:13.728Z,0.90
2023-01-26T11:34:13.691Z,0.96
2023-01-26T11:35:14.047Z,0.97
2023-01-26T11:36:13.683Z,1.00
2023-01-26T11:37:13.716Z,1.01
2023-01-26T11:38:13.654Z,0.96
2023-01-26T11:39:13.632Z,0.92
2023-01-26T11:40:13.634Z,0.92
2023-01-26T11:41:13.613Z,0.97
2023-01-26T11:42:13.600Z,1.00
2023-01-26T11:43:13.587Z,1.00
2023-01-26T11:44:13.579Z,1.00
2023-01-26T11:45:13.844Z,1.01
2023-01-26T11:46:13.542Z,1.04
2023-01-26T11:47:13.535Z,1.03
2023-01-26T11:48:13.512Z,1.06
2023-01-26T11:49:13.509Z,1.07
2023-01-26T11:50:13.525Z,1.04
2023-01-26T11:51:13.519Z,1.06
2023-01-26T11:52:13.461Z,1.08
2023-01-26T11:53:13.450Z,1.07
2023-01-26T11:54:13.450Z,1.10
2023-01-26T11:55:13.734Z,1.10
2023-01-26T11:56:13.415Z,1.12
2023-01-26T11:57:13.431Z,1.14
2023-01-26T11:58:13.404Z,1.14
2023-01-26T11:59:13.377Z,1.15
2023-01-26T12:00:28.583Z,1.18
2023-01-26T12:01:14.352Z,1.16
2023-01-26T12:02:13.386Z,1.14
2023-01-26T12:03:13.389Z,1.10
2023-01-26T12:04:13.308Z,1.10
2023-01-26T12:05:13.627Z,1.15
2023-01-26T12:06:13.276Z,1.18
2023-01-26T12:07:13.281Z,1.21
2023-01-26T12:08:13.261Z,1.18
2023-01-26T12:09:13.250Z,1.14
2023-01-26T12:10:13.287Z,1.16
2023-01-26T12:11:13.215Z,1.16
2023-01-26T12:12:13.203Z,1.15
2023-01-26T12:13:13.195Z,1.16
2023-01-26T12:14:13.185Z,1.16
2023-01-26T12:15:13.404Z,1.19
2023-01-26T12:16:13.184Z,1.22
2023-01-26T12:17:18.430Z,1.22
2023-01-26T12:18:14.124Z,1.24
2023-01-26T12:19:13.123Z,1.24
2023-01-26T12:20:13.122Z,1.25
2023-01-26T12:21:13.113Z,1.24
2023-01-26T12:22:13.124Z,1.25
2023-01-26T12:23:13.088Z,1.28
2023-01-26T12:24:35.817Z,1.29
2023-01-26T12:25:19.442Z,1.33
2023-01-26T12:26:14.045Z,1.34
2023-01-26T12:27:13.012Z,1.36
2023-01-26T12:28:12.993Z,1.39
2023-01-26T12:29:12.992Z,1.40
2023-01-26T12:30:12.986Z,1.42
2023-01-26T12:31:13.079Z,1.37
2023-01-26T12:32:12.948Z,1.33
2023-01-26T12:33:12.951Z,1.33
2023-01-26T12:34:12.941Z,1.36
2023-01-26T12:35:13.284Z,1.39
2023-01-26T12:36:12.894Z,1.40
2023-01-26T12:37:12.890Z,1.42
2023-01-26T12:38:18.324Z,1.42
2023-01-26T12:39:13.867Z,1.43
2023-01-26T12:40:12.870Z,1.46
2023-01-26T12:41:12.832Z,1.46
2023-01-26T12:42:12.831Z,1.47
2023-01-26T12:43:12.809Z,1.47
2023-01-26T12:44:12.788Z,1.47
2023-01-26T12:45:13.213Z,1.50
2023-01-26T12:46:12.781Z,1.51
2023-01-26T12:47:12.759Z,1.51
2023-01-26T12:48:12.740Z,1.47
2023-01-26T12:49:12.727Z,1.52
2023-01-26T12:50:13.247Z,1.51
2023-01-26T12:51:12.707Z,1.51
2023-01-26T12:52:12.699Z,1.52
2023-01-26T12:53:12.685Z,1.52
2023-01-26T12:54:12.670Z,1.51
2023-01-26T12:55:13.030Z,1.51
2023-01-26T12:56:12.645Z,1.52
2023-01-26T12:57:12.625Z,1.54
2023-01-26T12:58:12.641Z,1.50
2023-01-26T12:59:14.767Z,1.51
2023-01-26T13:00:14.030Z,1.51
2023-01-26T13:01:12.640Z,1.51
2023-01-26T13:02:12.590Z,1.50
2023-01-26T13:03:12.551Z,1.51
2023-01-26T13:04:12.549Z,1.52
2023-01-26T13:05:12.532Z,1.52
2023-01-26T13:06:12.535Z,1.52
2023-01-26T13:07:12.508Z,1.55
2023-01-26T13:08:12.484Z,1.54
2023-01-26T13:09:12.483Z,1.52
2023-01-26T13:10:13.060Z,1.54
2023-01-26T13:11:12.463Z,1.52
2023-01-26T13:12:12.454Z,1.54
2023-01-26T13:13:12.419Z,1.57
2023-01-26T13:14:12.411Z,1.61
2023-01-26T13:15:12.783Z,1.64
2023-01-26T13:16:12.429Z,1.65
2023-01-26T13:17:12.372Z,1.64
2023-01-26T13:18:12.352Z,1.60
2023-01-26T13:19:12.383Z,1.58
2023-01-26T13:20:12.579Z,1.60
2023-01-26T13:21:12.332Z,1.62
2023-01-26T13:22:12.305Z,1.65
2023-01-26T13:23:12.293Z,1.71
2023-01-26T13:24:12.335Z,1.71
2023-01-26T13:25:12.278Z,1.72
2023-01-26T13:26:12.272Z,1.72
2023-01-26T13:27:12.242Z,1.69
2023-01-26T13:28:12.226Z,1.65
2023-01-26T13:29:12.229Z,1.65
2023-01-26T13:30:12.432Z,1.68
2023-01-26T13:31:12.363Z,1.71
2023-01-26T13:32:12.168Z,1.75
2023-01-26T13:33:12.177Z,1.78
2023-01-26T13:34:12.158Z,1.80
2023-01-26T13:35:12.141Z,1.82
2023-01-26T13:36:12.129Z,1.85
2023-01-26T13:37:12.114Z,1.85
2023-01-26T13:38:12.099Z,1.85
2023-01-26T13:39:12.088Z,1.87
2023-01-26T13:40:12.449Z,1.87
2023-01-26T13:41:12.080Z,1.87
2023-01-26T13:42:12.037Z,1.90
2023-01-26T13:43:25.894Z,1.91
2023-01-26T13:44:13.015Z,1.93
2023-01-26T13:45:12.340Z,1.91
2023-01-26T13:46:12.028Z,1.91
2023-01-26T13:47:11.984Z,1.91
2023-01-26T13:48:11.965Z,1.94
2023-01-26T13:49:11.984Z,1.97
2023-01-26T13:50:12.360Z,2.01
2023-01-26T13:51:11.942Z,1.99
2023-01-26T13:52:11.916Z,2.01
2023-01-26T13:53:11.903Z,2.04
2023-01-26T13:54:11.892Z,2.06
2023-01-26T13:55:11.872Z,2.09
2023-01-26T13:56:13.871Z,2.10
2023-01-26T13:57:11.852Z,2.12
2023-01-26T13:58:11.846Z,2.13
2023-01-26T13:59:11.820Z,2.17
2023-01-26T14:00:12.234Z,2.17
2023-01-26T14:01:11.823Z,2.19
2023-01-26T14:02:11.814Z,2.20
2023-01-26T14:03:11.780Z,2.22
2023-01-26T14:04:11.752Z,2.27
2023-01-26T14:05:12.100Z,2.30
2023-01-26T14:06:11.730Z,2.35
2023-01-26T14:07:11.733Z,2.40
2023-01-26T14:08:11.718Z,2.38
2023-01-26T14:09:11.710Z,2.40
2023-01-26T14:10:12.068Z,2.41
2023-01-26T14:11:11.739Z,2.44
2023-01-26T14:12:11.659Z,2.45
2023-01-26T14:13:11.752Z,2.48
2023-01-26T14:14:11.630Z,2.52
2023-01-26T14:15:11.872Z,2.53
2023-01-26T14:16:11.712Z,2.56
2023-01-26T14:17:11.605Z,2.51
2023-01-26T14:18:11.586Z,2.49
2023-01-26T14:19:11.566Z,2.53
2023-01-26T14:20:11.558Z,2.56
2023-01-26T14:21:11.537Z,2.61
2023-01-26T14:22:11.557Z,2.59
2023-01-26T14:23:11.508Z,2.58
2023-01-26T14:24:11.573Z,2.56
2023-01-26T14:25:11.812Z,2.61
2023-01-26T14:26:11.494Z,2.67
2023-01-26T14:27:11.474Z,2.69
2023-01-26T14:28:11.447Z,2.70
2023-01-26T14:29:11.444Z,2.70
2023-01-26T14:30:11.717Z,2.73
2023-01-26T14:31:11.504Z,2.73
2023-01-26T14:32:11.444Z,2.74
2023-01-26T14:33:11.405Z,2.74
2023-01-26T14:34:11.379Z,2.77
2023-01-26T14:35:11.738Z,2.79
2023-01-26T14:36:11.394Z,2.79
2023-01-26T14:37:11.344Z,2.79
2023-01-26T14:38:11.328Z,2.81
2023-01-26T14:39:11.322Z,2.81
2023-01-26T14:40:11.570Z,2.82
2023-01-26T14:41:11.273Z,2.85
2023-01-26T14:42:11.332Z,2.84
2023-01-26T14:43:11.253Z,2.84
2023-01-26T14:44:11.231Z,2.84
2023-01-26T14:45:11.243Z,2.85
2023-01-26T14:46:11.258Z,2.87
2023-01-26T14:47:11.245Z,2.85
2023-01-26T14:48:11.181Z,2.82
2023-01-26T14:49:11.179Z,2.82
2023-01-26T14:50:11.637Z,2.84
2023-01-26T14:51:11.142Z,2.85
2023-01-26T14:52:11.139Z,2.85
2023-01-26T14:53:11.120Z,2.87
2023-01-26T14:54:11.111Z,2.88
2023-01-26T14:55:11.089Z,2.89
2023-01-26T14:56:11.079Z,2.91
2023-01-26T14:57:11.091Z,2.89
2023-01-26T14:58:11.049Z,2.89
2023-01-26T14:59:11.039Z,2.88
2023-01-26T15:00:11.369Z,2.87
2023-01-26T15:01:11.111Z,2.89
2023-01-26T15:02:11.100Z,2.91
2023-01-26T15:03:10.989Z,2.91
2023-01-26T15:04:10.992Z,2.95
2023-01-26T15:05:10.969Z,2.97
2023-01-26T15:06:10.968Z,2.95
2023-01-26T15:07:10.946Z,2.98
2023-01-26T15:08:10.940Z,2.97
2023-01-26T15:09:10.907Z,2.97
2023-01-26T15:10:11.216Z,2.97
2023-01-26T15:11:10.888Z,2.95
2023-01-26T15:12:10.881Z,2.98
2023-01-26T15:13:10.889Z,2.98
2023-01-26T15:14:10.897Z,2.98
2023-01-26T15:15:10.838Z,3.00
2023-01-26T15:16:10.869Z,3.02
2023-01-26T15:17:10.807Z,3.02
2023-01-26T15:18:10.805Z,3.03
2023-01-26T15:19:10.775Z,3.06
2023-01-26T15:20:11.033Z,3.03
2023-01-26T15:21:10.756Z,3.03
2023-01-26T15:22:10.744Z,3.02
2023-01-26T15:23:10.755Z,3.03
2023-01-26T15:24:10.744Z,3.03
2023-01-26T15:25:10.879Z,3.02
2023-01-26T15:26:10.697Z,3.02
2023-01-26T15:27:10.683Z,3.02
2023-01-26T15:28:10.686Z,3.05
2023-01-26T15:29:10.657Z,3.03
2023-01-26T15:30:10.653Z,3.03
2023-01-26T15:31:10.704Z,3.05
2023-01-26T15:32:10.623Z,3.03
2023-01-26T15:33:10.628Z,3.02
2023-01-26T15:34:10.584Z,3.03
2023-01-26T15:35:10.898Z,3.02
2023-01-26T15:36:10.562Z,2.98
2023-01-26T15:37:10.550Z,2.98
2023-01-26T15:38:10.564Z,2.98
2023-01-26T15:39:10.521Z,2.95
2023-01-26T15:40:10.503Z,2.94
2023-01-26T15:41:10.490Z,2.94
2023-01-26T15:42:10.479Z,2.92
2023-01-26T15:43:10.477Z,2.92
2023-01-26T15:44:10.459Z,2.92
2023-01-26T15:45:10.803Z,2.92
2023-01-26T15:46:10.490Z,2.94
2023-01-26T15:47:10.422Z,2.92
2023-01-26T15:48:10.422Z,2.94
2023-01-26T15:49:10.400Z,2.95
2023-01-26T15:50:18.965Z,2.94
2023-01-26T15:51:11.368Z,2.95
2023-01-26T15:52:10.358Z,2.94
2023-01-26T15:53:10.348Z,2.95
2023-01-26T15:54:10.324Z,2.97
2023-01-26T15:55:10.784Z,2.97
2023-01-26T15:56:10.298Z,2.97
2023-01-26T15:57:10.284Z,2.97
2023-01-26T15:58:10.301Z,2.95
2023-01-26T15:59:10.266Z,2.95
2023-01-26T16:00:10.237Z,2.98
2023-01-26T16:01:10.264Z,2.98
2023-01-26T16:02:10.299Z,2.97
2023-01-26T16:03:10.224Z,2.95
2023-01-26T16:04:10.189Z,2.95
2023-01-26T16:05:10.635Z,2.95
2023-01-26T16:06:10.166Z,2.97
2023-01-26T16:07:10.158Z,2.97
2023-01-26T16:08:10.147Z,2.95
2023-01-26T16:09:10.139Z,2.92
2023-01-26T16:10:10.109Z,2.92
2023-01-26T16:11:10.113Z,2.91
2023-01-26T16:12:11.423Z,2.92
2023-01-26T16:13:10.098Z,2.91
2023-01-26T16:14:10.064Z,2.92
2023-01-26T16:15:10.371Z,2.92
2023-01-26T16:16:10.076Z,2.92
2023-01-26T16:17:10.034Z,2.94
2023-01-26T16:18:10.035Z,2.92
2023-01-26T16:19:10.015Z,2.92
2023-01-26T16:20:09.983Z,2.91
2023-01-26T16:21:10.003Z,2.91
2023-01-26T16:22:09.960Z,2.91
2023-01-26T16:23:09.992Z,2.94
2023-01-26T16:24:09.984Z,2.95
2023-01-26T16:25:10.228Z,2.95
2023-01-26T16:26:09.901Z,2.95
2023-01-26T16:27:09.903Z,2.95
2023-01-26T16:28:09.909Z,2.95
2023-01-26T16:29:09.870Z,2.95
2023-01-26T16:30:09.851Z,2.95
2023-01-26T16:31:09.955Z,2.94
2023-01-26T16:32:09.822Z,2.92
2023-01-26T16:33:09.820Z,2.92
2023-01-26T16:34:09.809Z,2.92
2023-01-26T16:35:10.211Z,2.91
2023-01-26T16:36:09.779Z,2.89
2023-01-26T16:37:09.780Z,2.87
2023-01-26T16:38:09.769Z,2.87
2023-01-26T16:39:09.761Z,2.88
2023-01-26T16:40:09.739Z,2.89
2023-01-26T16:41:09.741Z,2.88
2023-01-26T16:42:09.719Z,2.89
2023-01-26T16:43:09.746Z,2.89
2023-01-26T16:44:09.695Z,2.88
2023-01-26T16:45:10.019Z,2.91
2023-01-26T16:46:09.701Z,2.89
2023-01-26T16:47:09.658Z,2.91
2023-01-26T16:48:09.629Z,2.92
2023-01-26T16:49:09.616Z,2.94
2023-01-26T16:50:09.590Z,2.95
2023-01-26T16:51:09.584Z,2.94
2023-01-26T16:52:09.586Z,2.94
2023-01-26T16:53:09.567Z,2.95
2023-01-26T16:54:09.543Z,2.95
2023-01-26T16:55:09.815Z,2.94
2023-01-26T16:56:09.515Z,2.92
2023-01-26T16:57:09.528Z,2.94
2023-01-26T16:58:09.512Z,2.92
2023-01-26T16:59:09.485Z,2.92
2023-01-26T17:00:09.475Z,2.94
2023-01-26T17:01:09.541Z,2.94
2023-01-26T17:02:09.497Z,2.92
2023-01-26T17:03:09.444Z,2.94
2023-01-26T17:04:09.410Z,2.95
2023-01-26T17:05:09.657Z,2.95
2023-01-26T17:06:09.383Z,2.94
2023-01-26T17:07:09.372Z,2.94
2023-01-26T17:08:09.370Z,2.94
2023-01-26T17:09:09.397Z,2.92
2023-01-26T17:10:09.332Z,2.92
2023-01-26T17:11:09.362Z,2.91
2023-01-26T17:12:09.332Z,2.92
2023-01-26T17:13:09.311Z,2.92
2023-01-26T17:14:09.314Z,2.91
2023-01-26T17:15:09.386Z,2.91
2023-01-26T17:16:09.275Z,2.89
2023-01-26T17:17:09.260Z,2.91
2023-01-26T17:18:09.250Z,2.92
2023-01-26T17:19:09.651Z,2.91
2023-01-26T17:20:18.428Z,2.89
2023-01-26T17:21:10.189Z,2.92
2023-01-26T17:22:09.198Z,2.92
2023-01-26T17:23:09.169Z,2.92
2023-01-26T17:24:09.201Z,2.95
2023-01-26T17:25:09.252Z,3.00
2023-01-26T17:26:09.148Z,3.00
2023-01-26T17:27:09.109Z,3.00
2023-01-26T17:28:09.117Z,3.02
2023-01-26T17:29:09.140Z,3.00
2023-01-26T17:30:09.068Z,2.98
2023-01-26T17:31:09.123Z,2.97
2023-01-26T17:32:09.049Z,2.95
2023-01-26T17:33:09.066Z,2.95
2023-01-26T17:34:09.026Z,2.98
2023-01-26T17:35:09.175Z,2.97
2023-01-26T17:36:09.012Z,2.97
2023-01-26T17:37:09.003Z,2.97
2023-01-26T17:38:09.004Z,2.95
2023-01-26T17:39:08.965Z,2.95
2023-01-26T17:40:08.956Z,2.92
2023-01-26T17:41:08.936Z,2.92
2023-01-26T17:42:08.930Z,2.91
2023-01-26T17:43:08.904Z,2.91
2023-01-26T17:44:08.925Z,2.91
2023-01-26T17:45:08.919Z,2.92
2023-01-26T17:46:08.918Z,2.92
2023-01-26T17:47:08.854Z,2.89
2023-01-26T17:48:08.874Z,2.92
2023-01-26T17:49:08.874Z,2.91
2023-01-26T17:50:08.828Z,2.92
2023-01-26T17:51:08.879Z,2.94
2023-01-26T17:52:08.857Z,2.94
2023-01-26T17:53:08.785Z,2.95
2023-01-26T17:54:08.784Z,2.95
2023-01-26T17:55:08.777Z,2.97
2023-01-26T17:56:08.824Z,2.98
2023-01-26T17:57:08.739Z,2.98
2023-01-26T17:58:08.729Z,2.97
2023-01-26T17:59:08.792Z,2.97
2023-01-26T18:00:08.792Z,2.95
2023-01-26T18:01:08.797Z,2.95
2023-01-26T18:02:08.770Z,2.94
2023-01-26T18:03:08.767Z,2.95
2023-01-26T18:04:08.786Z,2.94
2023-01-26T18:05:08.738Z,2.94
2023-01-26T18:06:08.635Z,2.95
2023-01-26T18:07:08.600Z,2.95
2023-01-26T18:08:08.697Z,2.94
2023-01-26T18:09:08.673Z,2.94
2023-01-26T18:10:08.581Z,2.94
2023-01-26T18:11:08.602Z,2.97
2023-01-26T18:12:08.540Z,2.98
2023-01-26T18:13:08.592Z,2.97
2023-01-26T18:14:08.519Z,2.98
2023-01-26T18:15:08.519Z,2.97
2023-01-26T18:16:08.477Z,2.98
2023-01-26T18:17:08.458Z,3.00
2023-01-26T18:18:08.458Z,2.98
2023-01-26T18:19:08.481Z,3.00
2023-01-26T18:20:08.418Z,3.00
2023-01-26T18:21:08.410Z,3.00
2023-01-26T18:22:08.399Z,3.00
2023-01-26T18:23:08.377Z,3.00
2023-01-26T18:24:08.437Z,3.00
2023-01-26T18:25:08.455Z,3.00
2023-01-26T18:26:08.391Z,3.00
2023-01-26T18:27:08.328Z,3.00
2023-01-26T18:28:08.421Z,3.00